createdAt,value
2022-10-31T19:20:07.012Z,87.68
2022-10-31T19:21:06.952Z,87.68
2022-10-31T19:22:06.900Z,86.91
2022-10-31T19:23:10.486Z,87.49
2022-10-31T19:24:06.804Z,87.49
2022-10-31T19:25:10.566Z,87.10
2022-10-31T19:26:06.721Z,87.10
2022-10-31T19:27:06.679Z,86.72
2022-10-31T19:28:06.621Z,87.19
2022-10-31T19:29:06.578Z,86.91
2022-10-31T19:30:06.531Z,87.01
2022-10-31T19:31:06.488Z,87.10
2022-10-31T19:32:06.497Z,86.81
2022-10-31T19:33:06.543Z,87.39
2022-10-31T19:34:06.368Z,87.19
2022-10-31T19:35:06.358Z,86.33
2022-10-31T19:36:06.310Z,86.52
2022-10-31T19:37:06.455Z,86.24
2022-10-31T19:38:06.398Z,86.24
2022-10-31T19:39:06.182Z,87.19
2022-10-31T19:40:06.104Z,86.62
2022-10-31T19:41:06.054Z,85.85
2022-10-31T19:42:06.226Z,86.05
2022-10-31T19:43:05.960Z,85.85
2022-10-31T19:44:05.923Z,85.75
2022-10-31T19:45:05.881Z,85.85
2022-10-31T19:46:05.832Z,86.05
2022-10-31T19:47:05.784Z,85.66
2022-10-31T19:48:05.738Z,85.85
2022-10-31T19:49:05.703Z,86.05
2022-10-31T19:50:05.651Z,85.18
2022-10-31T19:51:05.609Z,85.28
2022-10-31T19:52:05.584Z,85.95
2022-10-31T19:53:05.525Z,85.75
2022-10-31T19:54:05.480Z,85.75
2022-10-31T19:55:05.438Z,86.05
2022-10-31T19:56:05.392Z,85.85
2022-10-31T19:57:05.350Z,86.33
2022-10-31T19:58:05.309Z,85.95
2022-10-31T19:59:05.271Z,85.85
2022-10-31T20:00:05.220Z,87.01
2022-10-31T20:01:05.274Z,85.75
2022-10-31T20:02:05.134Z,85.85
2022-10-31T20:03:05.151Z,86.05
2022-10-31T20:04:05.048Z,85.95
2022-10-31T20:05:05.092Z,85.95
2022-10-31T20:06:04.961Z,87.19
2022-10-31T20:07:04.918Z,86.62
2022-10-31T20:08:04.889Z,86.52
2022-10-31T20:09:04.832Z,86.43
2022-10-31T20:10:04.784Z,86.33
2022-10-31T20:11:04.746Z,86.52
2022-10-31T20:12:04.698Z,86.91
2022-10-31T20:13:04.757Z,87.10
2022-10-31T20:14:04.613Z,86.81
2022-10-31T20:15:04.577Z,87.01
2022-10-31T20:16:04.529Z,86.91
2022-10-31T20:17:04.489Z,87.19
2022-10-31T20:18:04.441Z,87.10
2022-10-31T20:19:04.398Z,86.72
2022-10-31T20:20:04.353Z,86.91
2022-10-31T20:21:05.049Z,87.49
2022-10-31T20:22:04.269Z,87.49
2022-10-31T20:23:04.320Z,87.25
2022-10-31T20:24:04.205Z,87.77
2022-10-31T20:25:04.142Z,88.21
2022-10-31T20:26:04.096Z,87.68
2022-10-31T20:27:04.053Z,87.44
2022-10-31T20:28:04.007Z,88.35
2022-10-31T20:29:03.980Z,87.77
2022-10-31T20:30:03.923Z,88.11
2022-10-31T20:31:03.883Z,88.11
2022-10-31T20:32:03.838Z,88.59
2022-10-31T20:33:04.180Z,88.49
2022-10-31T20:34:03.749Z,88.49
2022-10-31T20:35:03.712Z,88.59
2022-10-31T20:36:03.663Z,88.49
2022-10-31T20:37:03.623Z,88.59
2022-10-31T20:38:03.903Z,88.40
2022-10-31T20:39:03.539Z,88.88
2022-10-31T20:40:03.509Z,89.12
2022-10-31T20:41:03.448Z,88.88
2022-10-31T20:42:03.403Z,88.79
2022-10-31T20:43:03.368Z,89.17
2022-10-31T20:44:03.320Z,89.07
2022-10-31T20:45:03.285Z,88.21
2022-10-31T20:46:03.233Z,88.79
2022-10-31T20:47:03.188Z,88.98
2022-10-31T20:48:03.644Z,88.69
2022-10-31T20:49:03.103Z,88.88
2022-10-31T20:50:03.057Z,89.17
2022-10-31T20:51:03.077Z,89.46
2022-10-31T20:52:02.977Z,89.65
2022-10-31T20:53:03.433Z,89.55
2022-10-31T20:54:02.887Z,89.84
2022-10-31T20:55:02.849Z,89.46
2022-10-31T20:56:06.946Z,88.98
2022-10-31T20:57:02.758Z,89.07
2022-10-31T20:58:02.713Z,89.46
2022-10-31T20:59:02.671Z,89.17
2022-10-31T21:00:02.639Z,89.36
2022-10-31T21:01:02.664Z,89.65
2022-10-31T21:02:02.743Z,89.55
2022-10-31T21:03:02.866Z,89.89
2022-10-31T21:04:02.451Z,89.84
2022-10-31T21:05:02.410Z,89.75
2022-10-31T21:06:02.367Z,90.03
2022-10-31T21:07:02.332Z,89.69
2022-10-31T21:08:02.279Z,89.46
2022-10-31T21:09:02.237Z,89.36
2022-10-31T21:10:02.203Z,89.46
2022-10-31T21:11:02.154Z,89.94
2022-10-31T21:12:02.146Z,89.79
2022-10-31T21:14:02.024Z,89.46
2022-10-31T21:15:01.980Z,89.84
2022-10-31T21:16:01.941Z,90.42
2022-10-31T21:17:01.890Z,90.17
2022-10-31T21:18:01.852Z,89.75
2022-10-31T21:19:01.804Z,89.94
2022-10-31T21:20:01.764Z,89.89
2022-10-31T21:21:01.722Z,90.27
2022-10-31T21:23:30.116Z,89.94
2022-10-31T21:24:30.069Z,90.17
2022-10-31T21:25:30.026Z,89.84
2022-10-31T21:26:29.987Z,90.42
2022-10-31T21:27:29.954Z,90.70
2022-10-31T21:28:29.898Z,89.79
2022-10-31T21:29:29.863Z,90.27
2022-10-31T21:30:29.827Z,90.75
2022-10-31T21:31:29.766Z,89.75
2022-10-31T21:32:29.726Z,90.56
2022-10-31T21:33:29.689Z,90.08
2022-10-31T21:34:29.645Z,90.03
2022-10-31T21:35:29.597Z,90.22
2022-10-31T21:36:29.547Z,90.56
